Time;durP1;ratioP1;P1;durP2;ratioP2;P2;SDS_P1;SDS_P2;PMS_P1;PMS_P2;Temp;Humidity;BMP_temperature;BMP_pressure;BME280_temperature;BME280_humidity;BME280_pressure;Samples;Min_cycle;Max_cycle;Signal;HPM_P1;HPM_P2
2023/06/29 00:01:23;;;;;;;496.17;457.33;;;;;;;;;;5102544;28;20052;-67
2023/06/29 00:03:50;;;;;;;493.65;455.50;;;;;;;;;;5101711;28;20126;-66
2023/06/29 00:06:17;;;;;;;503.45;463.45;;;;;;;;;;5097479;28;20032;-66
2023/06/29 00:08:44;;;;;;;508.85;467.58;;;;;;;;;;5102317;28;20062;-66
2023/06/29 00:11:10;;;;;;;500.20;460.48;;;;;;;;;;5099257;28;20040;-67
2023/06/29 00:13:37;;;;;;;498.17;460.25;;;;;;;;;;5101981;28;20044;-66
2023/06/29 00:16:04;;;;;;;499.63;460.13;;;;;;;;;;5101081;28;20043;-66
2023/06/29 00:18:32;;;;;;;516.78;472.20;;;;;;;;;;5100271;28;20058;-67
2023/06/29 00:21:01;;;;;;;493.77;456.50;;;;;;;;;;5091090;28;20078;-65
2023/06/29 00:23:27;;;;;;;494.75;456.30;;;;;;;;;;5101589;28;20040;-61
2023/06/29 00:25:56;;;;;;;491.70;452.60;;;;;;;;;;5097376;28;20044;-65
2023/06/29 00:28:22;;;;;;;487.38;449.83;;;;;;;;;;5098003;28;20068;-68
2023/06/29 00:30:49;;;;;;;482.63;444.58;;;;;;;;;;5098125;28;20044;-64
2023/06/29 00:33:16;;;;;;;475.67;438.30;;;;;;;;;;5080749;28;20051;-66
2023/06/29 00:35:42;;;;;;;469.17;433.25;;;;;;;;;;5104437;28;20071;-67
2023/06/29 00:38:09;;;;;;;477.23;440.25;;;;;;;;;;5098514;28;20617;-66
2023/06/29 00:40:36;;;;;;;487.75;448.95;;;;;;;;;;5080817;28;20048;-62
2023/06/29 00:43:03;;;;;;;496.30;456.80;;;;;;;;;;5103712;28;20040;-68
2023/06/29 00:45:29;;;;;;;495.48;452.83;;;;;;;;;;5083151;28;20039;-67
2023/06/29 00:47:56;;;;;;;482.60;444.88;;;;;;;;;;5099154;28;20048;-68
2023/06/29 00:50:23;;;;;;;494.20;455.45;;;;;;;;;;5095738;28;20089;-66
2023/06/29 00:52:49;;;;;;;484.33;446.08;;;;;;;;;;5084338;28;20048;-67
2023/06/29 00:55:16;;;;;;;476.77;440.88;;;;;;;;;;5098662;28;20035;-66
2023/06/29 00:57:43;;;;;;;467.92;430.27;;;;;;;;;;5078086;28;20075;-66
2023/06/29 01:00:10;;;;;;;461.02;426.45;;;;;;;;;;5081272;28;20052;-68
2023/06/29 01:02:40;;;;;;;465.27;428.85;;;;;;;;;;5104144;28;20058;-63
2023/06/29 01:05:11;;;;;;;460.48;425.00;;;;;;;;;;5097561;28;20071;-65
2023/06/29 01:07:47;;;;;;;452.00;417.88;;;;;;;;;;5085118;28;20055;-65
2023/06/29 01:10:16;;;;;;;462.27;424.98;;;;;;;;;;5087017;28;20146;-61
2023/06/29 01:12:43;;;;;;;463.67;425.83;;;;;;;;;;5085988;28;20043;-66
2023/06/29 01:15:11;;;;;;;463.63;427.08;;;;;;;;;;5105345;28;20048;-68
2023/06/29 01:17:39;;;;;;;455.63;420.20;;;;;;;;;;5103806;28;20395;-66
2023/06/29 01:20:12;;;;;;;456.48;421.58;;;;;;;;;;5104161;28;20044;-66
2023/06/29 01:22:55;;;;;;;439.90;405.00;;;;;;;;;;5101278;28;20127;-65
2023/06/29 01:25:24;;;;;;;435.73;401.95;;;;;;;;;;5105924;28;20105;-66
2023/06/29 01:27:51;;;;;;;433.35;400.30;;;;;;;;;;5104518;28;20051;-65
2023/06/29 01:30:18;;;;;;;418.25;386.80;;;;;;;;;;5102600;28;20144;-66
2023/06/29 01:32:44;;;;;;;417.83;386.00;;;;;;;;;;5104801;28;20130;-65
2023/06/29 01:35:12;;;;;;;427.50;394.85;;;;;;;;;;5103715;28;20044;-66
2023/06/29 01:37:45;;;;;;;419.15;387.67;;;;;;;;;;5104771;28;20075;-62
2023/06/29 01:40:15;;;;;;;426.30;393.75;;;;;;;;;;5099956;28;20057;-66
2023/06/29 01:42:42;;;;;;;430.58;396.33;;;;;;;;;;5084839;28;20047;-67
2023/06/29 01:45:10;;;;;;;408.65;378.40;;;;;;;;;;5103328;28;20085;-67
2023/06/29 01:47:37;;;;;;;432.52;397.90;;;;;;;;;;5097557;28;20127;-68
2023/06/29 01:50:04;;;;;;;418.02;386.55;;;;;;;;;;5106253;28;20039;-67
2023/06/29 01:52:31;;;;;;;423.90;391.42;;;;;;;;;;5085737;28;20435;-65
2023/06/29 01:54:58;;;;;;;423.13;391.63;;;;;;;;;;5104586;28;20040;-63
2023/06/29 01:57:26;;;;;;;427.20;392.15;;;;;;;;;;5102036;28;20044;-68
2023/06/29 01:59:53;;;;;;;422.90;391.38;;;;;;;;;;5089997;28;20047;-68
2023/06/29 02:05:22;;;;;;;429.92;398.27;;;;;;;;;;5065239;28;20470;-62
2023/06/29 02:07:49;;;;;;;437.75;406.50;;;;;;;;;;5051978;28;20045;-62
2023/06/29 02:10:16;;;;;;;439.08;407.10;;;;;;;;;;5070172;28;20043;-63
2023/06/29 02:12:44;;;;;;;451.73;415.92;;;;;;;;;;5052539;28;20064;-63
2023/06/29 02:15:11;;;;;;;447.80;415.00;;;;;;;;;;5068090;28;20040;-61
2023/06/29 02:17:38;;;;;;;434.92;404.38;;;;;;;;;;5061629;28;20087;-65
2023/06/29 02:20:07;;;;;;;441.05;408.85;;;;;;;;;;5060363;28;20037;-64
2023/06/29 02:22:34;;;;;;;450.85;417.95;;;;;;;;;;5052836;28;20055;-65
2023/06/29 02:25:00;;;;;;;453.52;418.30;;;;;;;;;;5066410;28;20048;-66
2023/06/29 02:27:27;;;;;;;461.75;422.95;;;;;;;;;;5067788;28;20076;-64
2023/06/29 02:29:53;;;;;;;458.30;424.02;;;;;;;;;;5067607;28;20064;-64
2023/06/29 02:32:22;;;;;;;455.83;423.08;;;;;;;;;;5048772;28;20045;-65
2023/06/29 02:34:49;;;;;;;456.90;423.55;;;;;;;;;;5049290;28;20050;-64
2023/06/29 02:37:16;;;;;;;453.80;421.58;;;;;;;;;;5049673;28;20072;-65
2023/06/29 02:39:43;;;;;;;464.00;429.23;;;;;;;;;;5049735;28;20045;-65
2023/06/29 02:42:09;;;;;;;464.98;431.30;;;;;;;;;;5067594;28;20135;-66
2023/06/29 02:44:36;;;;;;;460.70;426.45;;;;;;;;;;5060369;28;20037;-65
2023/06/29 02:47:03;;;;;;;463.95;429.60;;;;;;;;;;5064097;28;20044;-64
2023/06/29 02:49:31;;;;;;;450.95;418.15;;;;;;;;;;5048654;28;20036;-64
2023/06/29 02:51:57;;;;;;;461.95;427.45;;;;;;;;;;5053195;28;20093;-62
2023/06/29 02:54:24;;;;;;;477.05;435.92;;;;;;;;;;5050277;28;20541;-62
2023/06/29 02:56:51;;;;;;;453.67;420.60;;;;;;;;;;5065203;28;20090;-64
2023/06/29 02:59:18;;;;;;;467.00;432.27;;;;;;;;;;5065553;28;20535;-66
2023/06/29 03:01:45;;;;;;;459.60;425.00;;;;;;;;;;5050081;28;20106;-61
2023/06/29 03:04:11;;;;;;;459.33;425.98;;;;;;;;;;5028718;28;20075;-63
2023/06/29 03:06:38;;;;;;;473.25;434.75;;;;;;;;;;5030810;28;20136;-62
2023/06/29 03:09:04;;;;;;;459.45;425.63;;;;;;;;;;5031680;28;20045;-62
2023/06/29 03:11:31;;;;;;;434.75;403.25;;;;;;;;;;5043964;28;20041;-63
2023/06/29 03:13:57;;;;;;;439.83;407.67;;;;;;;;;;5046155;28;20041;-62
2023/06/29 03:16:27;;;;;;;453.30;418.38;;;;;;;;;;5047656;28;20045;-64
2023/06/29 03:18:53;;;;;;;444.20;412.83;;;;;;;;;;5046921;28;20171;-64
2023/06/29 03:21:20;;;;;;;434.70;402.02;;;;;;;;;;5029627;28;20520;-66
2023/06/29 03:23:47;;;;;;;443.90;411.75;;;;;;;;;;5042935;28;20403;-62
2023/06/29 03:26:13;;;;;;;431.58;400.83;;;;;;;;;;5044336;28;20530;-62
2023/06/29 03:28:40;;;;;;;447.20;413.35;;;;;;;;;;5050769;28;20413;-63
2023/06/29 03:31:06;;;;;;;446.90;413.30;;;;;;;;;;5047957;28;20037;-63
2023/06/29 03:33:33;;;;;;;459.02;421.92;;;;;;;;;;5046758;28;20043;-62
2023/06/29 03:36:00;;;;;;;448.30;415.20;;;;;;;;;;5048461;28;20118;-62
2023/06/29 03:38:26;;;;;;;459.23;424.65;;;;;;;;;;5049794;28;20045;-63
2023/06/29 03:40:53;;;;;;;456.63;422.02;;;;;;;;;;5044304;28;20045;-63
2023/06/29 03:43:20;;;;;;;463.35;428.48;;;;;;;;;;5027245;28;20494;-63
2023/06/29 03:45:46;;;;;;;483.40;444.83;;;;;;;;;;5047155;28;20045;-63
2023/06/29 03:48:13;;;;;;;477.48;442.02;;;;;;;;;;5017380;28;20397;-63
2023/06/29 03:50:40;;;;;;;472.95;436.98;;;;;;;;;;5037806;28;20052;-62
2023/06/29 03:53:08;;;;;;;502.38;463.88;;;;;;;;;;5038952;28;20037;-63
2023/06/29 03:55:34;;;;;;;485.80;447.55;;;;;;;;;;5049525;28;20051;-64
2023/06/29 03:58:01;;;;;;;484.77;446.83;;;;;;;;;;5045308;28;20037;-64
2023/06/29 04:00:27;;;;;;;483.70;444.10;;;;;;;;;;5044405;28;20049;-64
2023/06/29 04:02:54;;;;;;;470.08;434.92;;;;;;;;;;5042254;28;20045;-63
2023/06/29 04:05:21;;;;;;;477.60;441.92;;;;;;;;;;5064442;28;20048;-63
2023/06/29 04:07:47;;;;;;;491.33;451.75;;;;;;;;;;5061062;28;20107;-63
2023/06/29 04:10:14;;;;;;;486.40;448.67;;;;;;;;;;5064253;28;20132;-63
2023/06/29 04:12:40;;;;;;;496.45;453.70;;;;;;;;;;5066193;28;20082;-62
2023/06/29 04:15:07;;;;;;;483.70;445.08;;;;;;;;;;5070167;28;20048;-63
2023/06/29 04:17:34;;;;;;;491.80;453.83;;;;;;;;;;5061316;28;20381;-62
2023/06/29 04:20:00;;;;;;;496.55;458.55;;;;;;;;;;5052399;28;20131;-63
2023/06/29 04:22:27;;;;;;;488.70;452.63;;;;;;;;;;5065816;28;20381;-63
2023/06/29 04:24:54;;;;;;;492.20;454.67;;;;;;;;;;5048038;28;20044;-62
2023/06/29 04:27:20;;;;;;;491.10;453.90;;;;;;;;;;5068234;28;20049;-62
2023/06/29 04:29:47;;;;;;;500.08;461.30;;;;;;;;;;5061565;28;20051;-63
2023/06/29 04:32:13;;;;;;;504.30;465.38;;;;;;;;;;5050527;28;20075;-62
2023/06/29 04:34:40;;;;;;;504.98;465.73;;;;;;;;;;5067828;28;20406;-63
2023/06/29 04:37:07;;;;;;;526.78;485.52;;;;;;;;;;5062932;28;20040;-63
2023/06/29 04:39:33;;;;;;;547.63;499.00;;;;;;;;;;5070261;28;20123;-62
2023/06/29 04:42:01;;;;;;;530.33;490.25;;;;;;;;;;5071095;28;20043;-63
2023/06/29 04:44:34;;;;;;;535.05;493.30;;;;;;;;;;5065948;28;20037;-65
2023/06/29 04:47:00;;;;;;;554.22;510.33;;;;;;;;;;5067910;28;20371;-65
2023/06/29 04:49:31;;;;;;;555.03;510.42;;;;;;;;;;5068785;28;20482;-63
2023/06/29 04:51:59;;;;;;;562.20;516.83;;;;;;;;;;5068468;28;20450;-64
2023/06/29 04:54:27;;;;;;;565.00;519.15;;;;;;;;;;5056335;28;20055;-64
2023/06/29 04:56:54;;;;;;;563.00;519.10;;;;;;;;;;5057013;28;20048;-64
2023/06/29 04:59:22;;;;;;;570.03;521.22;;;;;;;;;;5054518;28;20048;-65
2023/06/29 05:01:48;;;;;;;570.88;524.13;;;;;;;;;;5052651;28;20095;-65
2023/06/29 05:04:15;;;;;;;561.03;518.72;;;;;;;;;;5062894;28;20053;-65
2023/06/29 05:06:42;;;;;;;575.58;526.38;;;;;;;;;;5067195;28;20044;-65
2023/06/29 05:09:09;;;;;;;560.58;516.10;;;;;;;;;;5069878;28;20075;-65
2023/06/29 05:11:35;;;;;;;574.00;528.17;;;;;;;;;;5070122;28;20040;-65
2023/06/29 05:14:02;;;;;;;570.47;524.35;;;;;;;;;;5064511;28;20044;-65
2023/06/29 05:16:29;;;;;;;562.67;519.42;;;;;;;;;;5068566;28;20052;-64
2023/06/29 05:18:55;;;;;;;567.83;522.80;;;;;;;;;;5071686;28;20047;-63
2023/06/29 05:21:22;;;;;;;583.65;536.67;;;;;;;;;;5073678;28;20512;-66
2023/06/29 05:23:48;;;;;;;577.00;532.63;;;;;;;;;;5067677;28;20126;-66
2023/06/29 05:26:15;;;;;;;574.42;530.83;;;;;;;;;;5067284;28;20429;-65
2023/06/29 05:28:42;;;;;;;591.00;544.65;;;;;;;;;;5071591;28;20481;-66
2023/06/29 05:31:28;;;;;;;578.78;534.15;;;;;;;;;;5064170;28;20503;-64
2023/06/29 05:33:55;;;;;;;591.92;545.10;;;;;;;;;;5063486;28;20041;-65
2023/06/29 05:36:22;;;;;;;589.00;542.92;;;;;;;;;;5070693;28;20040;-64
2023/06/29 05:38:48;;;;;;;596.10;550.13;;;;;;;;;;5069882;28;20044;-65
2023/06/29 05:41:15;;;;;;;611.20;564.67;;;;;;;;;;5062019;28;20474;-64
2023/06/29 05:43:42;;;;;;;622.40;574.42;;;;;;;;;;5067775;28;20627;-65
2023/06/29 05:46:08;;;;;;;616.67;568.80;;;;;;;;;;5067319;28;20551;-66
2023/06/29 05:48:35;;;;;;;623.30;571.45;;;;;;;;;;5066682;28;20216;-65
2023/06/29 05:51:01;;;;;;;603.67;557.38;;;;;;;;;;5053969;28;20130;-65
2023/06/29 05:53:28;;;;;;;614.42;566.85;;;;;;;;;;5064976;28;20502;-66
2023/06/29 05:55:54;;;;;;;624.40;575.58;;;;;;;;;;5053569;28;20441;-66
2023/06/29 05:58:22;;;;;;;620.92;573.70;;;;;;;;;;5053284;28;20060;-65
2023/06/29 06:00:48;;;;;;;633.83;585.38;;;;;;;;;;5062663;28;20666;-67
2023/06/29 06:03:15;;;;;;;643.00;591.90;;;;;;;;;;5067516;28;20076;-66
2023/06/29 06:05:42;;;;;;;576.55;531.90;;;;;;;;;;5065987;28;20409;-66
2023/06/29 06:08:08;;;;;;;538.60;498.45;;;;;;;;;;5062535;28;20356;-66
2023/06/29 06:10:35;;;;;;;545.40;501.63;;;;;;;;;;5065153;28;20528;-64
2023/06/29 06:13:02;;;;;;;543.40;501.48;;;;;;;;;;5069210;28;20124;-64
2023/06/29 06:15:29;;;;;;;555.30;510.10;;;;;;;;;;5067950;28;20051;-65
2023/06/29 06:17:56;;;;;;;539.60;499.70;;;;;;;;;;5066493;28;20413;-64
2023/06/29 06:20:22;;;;;;;545.50;505.23;;;;;;;;;;5064483;28;20059;-64
2023/06/29 06:22:49;;;;;;;541.22;501.85;;;;;;;;;;5067602;28;20036;-64
2023/06/29 06:25:17;;;;;;;550.75;509.85;;;;;;;;;;5068524;28;20501;-64
2023/06/29 06:27:44;;;;;;;564.58;518.70;;;;;;;;;;5066789;28;20048;-65
2023/06/29 06:30:11;;;;;;;552.60;512.70;;;;;;;;;;5067785;28;20040;-65
2023/06/29 06:32:41;;;;;;;553.17;511.83;;;;;;;;;;5067728;28;20044;-64
2023/06/29 06:35:08;;;;;;;565.33;522.63;;;;;;;;;;5061475;28;20033;-65
2023/06/29 06:37:36;;;;;;;566.72;524.45;;;;;;;;;;5065182;28;20134;-64
2023/06/29 06:40:07;;;;;;;579.72;537.33;;;;;;;;;;5068718;28;20040;-64
2023/06/29 06:42:34;;;;;;;607.13;559.10;;;;;;;;;;5067523;28;20582;-64
2023/06/29 06:45:03;;;;;;;574.78;532.33;;;;;;;;;;5072114;28;20044;-63
2023/06/29 06:47:31;;;;;;;582.33;539.72;;;;;;;;;;5051926;28;20794;-65
2023/06/29 06:49:58;;;;;;;617.75;571.17;;;;;;;;;;5066732;28;20033;-66
2023/06/29 06:52:25;;;;;;;608.22;563.00;;;;;;;;;;5070730;28;20068;-64
2023/06/29 06:54:51;;;;;;;617.47;569.97;;;;;;;;;;5068751;28;20144;-64
2023/06/29 06:57:18;;;;;;;629.80;581.05;;;;;;;;;;5065809;28;20117;-64
2023/06/29 06:59:45;;;;;;;644.17;594.28;;;;;;;;;;5062441;28;20533;-64
2023/06/29 07:02:12;;;;;;;651.97;601.67;;;;;;;;;;5059328;28;20125;-64
2023/06/29 07:04:39;;;;;;;655.33;603.90;;;;;;;;;;5063189;28;20127;-65
2023/06/29 07:07:06;;;;;;;656.58;604.42;;;;;;;;;;5064956;28;20041;-64
2023/06/29 07:09:32;;;;;;;676.33;621.05;;;;;;;;;;5063447;28;20048;-65
2023/06/29 07:11:59;;;;;;;674.35;619.92;;;;;;;;;;5069105;28;20044;-65
2023/06/29 07:14:26;;;;;;;665.72;612.28;;;;;;;;;;5050914;28;20091;-65
2023/06/29 07:16:53;;;;;;;680.88;625.75;;;;;;;;;;5063836;28;20053;-65
2023/06/29 07:19:19;;;;;;;686.25;630.63;;;;;;;;;;5069861;28;20045;-64
2023/06/29 07:21:49;;;;;;;681.33;625.78;;;;;;;;;;5068818;28;20052;-65
2023/06/29 07:24:19;;;;;;;687.20;632.33;;;;;;;;;;5065450;28;20041;-65
2023/06/29 07:26:46;;;;;;;694.65;639.53;;;;;;;;;;5051030;28;20049;-64
2023/06/29 07:29:12;;;;;;;670.63;617.22;;;;;;;;;;5068536;28;20126;-65
2023/06/29 07:31:39;;;;;;;689.72;633.95;;;;;;;;;;5067726;28;20044;-65
2023/06/29 07:34:06;;;;;;;679.15;624.33;;;;;;;;;;5065994;28;20033;-64
2023/06/29 07:36:34;;;;;;;683.00;625.78;;;;;;;;;;5067858;28;20872;-66
2023/06/29 07:39:00;;;;;;;682.88;626.88;;;;;;;;;;5068913;28;20040;-64
2023/06/29 07:41:27;;;;;;;690.55;634.30;;;;;;;;;;5061818;28;20047;-65
2023/06/29 07:43:55;;;;;;;699.60;642.70;;;;;;;;;;5063886;28;20039;-64
2023/06/29 07:46:22;;;;;;;692.55;635.70;;;;;;;;;;5062948;28;20072;-65
2023/06/29 07:48:49;;;;;;;711.03;652.40;;;;;;;;;;5050514;28;20084;-65
2023/06/29 07:51:16;;;;;;;711.90;652.30;;;;;;;;;;5053612;28;20051;-65
2023/06/29 07:53:43;;;;;;;703.42;647.33;;;;;;;;;;5063339;28;20459;-65
2023/06/29 07:56:09;;;;;;;709.17;653.63;;;;;;;;;;5066032;28;20028;-64
2023/06/29 07:58:36;;;;;;;718.47;658.85;;;;;;;;;;5064043;28;20044;-65
2023/06/29 08:01:05;;;;;;;704.30;648.13;;;;;;;;;;5064553;28;20043;-65
2023/06/29 08:03:33;;;;;;;711.13;652.88;;;;;;;;;;5062589;28;20079;-65
2023/06/29 08:06:19;;;;;;;695.80;640.95;;;;;;;;;;5042956;28;20617;-64
2023/06/29 08:08:50;;;;;;;695.83;641.65;;;;;;;;;;5051817;28;20110;-64
2023/06/29 08:11:17;;;;;;;704.25;648.78;;;;;;;;;;5062209;28;20043;-65
2023/06/29 08:13:43;;;;;;;699.70;644.60;;;;;;;;;;5061147;28;20075;-64
2023/06/29 08:16:10;;;;;;;709.80;653.35;;;;;;;;;;5069643;28;20496;-65
2023/06/29 08:18:37;;;;;;;709.78;651.83;;;;;;;;;;5069550;28;20048;-64
2023/06/29 08:21:03;;;;;;;699.38;645.22;;;;;;;;;;5064543;28;20041;-65
2023/06/29 08:23:33;;;;;;;701.30;645.80;;;;;;;;;;5063078;28;20048;-66
2023/06/29 08:26:00;;;;;;;717.45;661.03;;;;;;;;;;5068904;28;20044;-64
2023/06/29 08:28:26;;;;;;;705.35;650.75;;;;;;;;;;5060415;28;20127;-65
2023/06/29 08:30:53;;;;;;;695.55;640.65;;;;;;;;;;5065025;28;20098;-64
2023/06/29 08:33:20;;;;;;;709.03;653.75;;;;;;;;;;5067308;28;20534;-63
2023/06/29 08:35:47;;;;;;;716.80;661.33;;;;;;;;;;5068655;28;20036;-65
2023/06/29 08:38:13;;;;;;;719.13;661.25;;;;;;;;;;5060315;28;20103;-64
2023/06/29 08:40:40;;;;;;;713.60;657.08;;;;;;;;;;5064618;28;20044;-64
2023/06/29 08:43:09;;;;;;;721.72;664.67;;;;;;;;;;5068450;28;20076;-65
2023/06/29 08:45:35;;;;;;;720.95;662.13;;;;;;;;;;5068900;28;20047;-64
2023/06/29 08:48:02;;;;;;;705.00;650.10;;;;;;;;;;5061487;28;20052;-65
2023/06/29 08:50:30;;;;;;;711.60;656.63;;;;;;;;;;5060485;28;20083;-64
2023/06/29 08:52:57;;;;;;;720.60;664.90;;;;;;;;;;5067253;28;20036;-64
2023/06/29 08:55:24;;;;;;;739.55;682.25;;;;;;;;;;5064666;28;20052;-65
2023/06/29 08:57:52;;;;;;;739.67;680.95;;;;;;;;;;5049416;28;20077;-65
2023/06/29 09:00:20;;;;;;;736.92;679.10;;;;;;;;;;5066358;28;20052;-64
2023/06/29 09:02:48;;;;;;;746.25;688.35;;;;;;;;;;5061886;28;20063;-64
2023/06/29 09:05:15;;;;;;;749.67;691.28;;;;;;;;;;5050566;28;20052;-64
2023/06/29 09:07:41;;;;;;;761.83;701.17;;;;;;;;;;5064196;28;20049;-64
2023/06/29 09:10:10;;;;;;;758.08;698.20;;;;;;;;;;5062942;28;20051;-64
2023/06/29 09:12:36;;;;;;;744.30;682.72;;;;;;;;;;5066136;28;20044;-64
2023/06/29 09:15:07;;;;;;;776.63;714.28;;;;;;;;;;5064525;28;20135;-64
2023/06/29 09:17:34;;;;;;;757.67;697.20;;;;;;;;;;5062236;28;20036;-64
2023/06/29 09:20:13;;;;;;;754.20;695.30;;;;;;;;;;5066910;28;20045;-64
2023/06/29 09:22:40;;;;;;;774.40;712.42;;;;;;;;;;5062818;28;20477;-64
2023/06/29 09:25:09;;;;;;;780.05;718.45;;;;;;;;;;5065639;28;20043;-65
2023/06/29 09:27:39;;;;;;;798.35;733.35;;;;;;;;;;5069560;28;20045;-64
2023/06/29 09:30:06;;;;;;;786.85;724.40;;;;;;;;;;5070773;28;20485;-66
2023/06/29 09:32:36;;;;;;;823.65;758.33;;;;;;;;;;5068926;28;20045;-64
2023/06/29 09:35:07;;;;;;;809.13;745.83;;;;;;;;;;5067455;28;20047;-65
2023/06/29 09:37:34;;;;;;;798.78;736.05;;;;;;;;;;5069143;28;20091;-64
2023/06/29 09:40:03;;;;;;;787.38;725.22;;;;;;;;;;5071609;28;20095;-64
2023/06/29 09:42:33;;;;;;;795.70;731.75;;;;;;;;;;5066225;28;20127;-64
2023/06/29 09:45:01;;;;;;;799.50;736.08;;;;;;;;;;5066050;28;20049;-65
2023/06/29 09:47:28;;;;;;;808.72;744.40;;;;;;;;;;5067406;28;20555;-64
2023/06/29 09:49:57;;;;;;;824.90;760.00;;;;;;;;;;5071012;28;20036;-64
2023/06/29 09:52:24;;;;;;;831.05;765.45;;;;;;;;;;5054450;28;20044;-65
2023/06/29 09:54:55;;;;;;;822.80;757.88;;;;;;;;;;5064583;28;20072;-64
2023/06/29 09:57:25;;;;;;;817.20;753.72;;;;;;;;;;5070305;28;20417;-64
2023/06/29 09:59:51;;;;;;;828.55;764.00;;;;;;;;;;5071049;28;20688;-64
2023/06/29 10:02:18;;;;;;;819.95;755.13;;;;;;;;;;5061185;28;20621;-68
2023/06/29 10:04:46;;;;;;;819.70;754.55;;;;;;;;;;5066493;28;20053;-64
2023/06/29 10:07:16;;;;;;;818.28;753.13;;;;;;;;;;5070712;28;20482;-66
2023/06/29 10:09:48;;;;;;;832.45;763.65;;;;;;;;;;5071475;28;20136;-67
2023/06/29 10:12:16;;;;;;;807.47;743.47;;;;;;;;;;5065702;28;20044;-64
2023/06/29 10:14:43;;;;;;;831.03;765.22;;;;;;;;;;5065438;28;20079;-66
2023/06/29 10:17:32;;;;;;;828.05;761.25;;;;;;;;;;5069067;28;20061;-63
2023/06/29 10:19:59;;;;;;;815.15;750.90;;;;;;;;;;5059913;28;20049;-66
2023/06/29 10:22:26;;;;;;;815.00;751.47;;;;;;;;;;5068524;28;20075;-64
2023/06/29 10:24:55;;;;;;;803.78;740.55;;;;;;;;;;5070014;28;20045;-64
2023/06/29 10:27:23;;;;;;;800.72;737.92;;;;;;;;;;5071338;28;20642;-65
2023/06/29 10:29:50;;;;;;;803.97;740.92;;;;;;;;;;5066016;28;20072;-65
2023/06/29 10:32:32;;;;;;;824.85;758.10;;;;;;;;;;5065101;28;20102;-65
2023/06/29 10:35:09;;;;;;;823.17;758.80;;;;;;;;;;5054191;28;20036;-64
2023/06/29 10:37:40;;;;;;;822.00;757.05;;;;;;;;;;5065820;28;20413;-64
2023/06/29 10:40:10;;;;;;;823.92;758.95;;;;;;;;;;5065865;28;20061;-64
2023/06/29 10:42:36;;;;;;;819.97;754.17;;;;;;;;;;5068521;28;20119;-65
2023/06/29 10:45:18;;;;;;;805.78;741.78;;;;;;;;;;5069738;28;20123;-64
2023/06/29 10:47:45;;;;;;;817.03;751.90;;;;;;;;;;5063325;28;20099;-64
2023/06/29 10:50:13;;;;;;;817.60;751.25;;;;;;;;;;5066383;28;20513;-64
2023/06/29 10:52:42;;;;;;;808.03;744.67;;;;;;;;;;5065721;28;20082;-65
2023/06/29 10:55:15;;;;;;;812.35;748.25;;;;;;;;;;5061391;28;20128;-64
2023/06/29 10:57:46;;;;;;;823.05;754.90;;;;;;;;;;5067339;28;20406;-64
2023/06/29 11:00:14;;;;;;;811.67;748.17;;;;;;;;;;5066273;28;20491;-64
2023/06/29 11:02:43;;;;;;;812.75;749.15;;;;;;;;;;5061588;28;20501;-64
2023/06/29 11:05:11;;;;;;;818.67;755.22;;;;;;;;;;5068044;28;20049;-65
2023/06/29 11:07:37;;;;;;;821.90;757.53;;;;;;;;;;5066259;28;20049;-63
2023/06/29 11:10:04;;;;;;;798.25;734.65;;;;;;;;;;5066767;28;20504;-64
2023/06/29 11:12:31;;;;;;;802.55;739.55;;;;;;;;;;5069007;28;20083;-66
2023/06/29 11:14:57;;;;;;;815.33;750.03;;;;;;;;;;5068065;28;20041;-65
2023/06/29 11:17:45;;;;;;;805.25;741.88;;;;;;;;;;5060792;28;20119;-65
2023/06/29 11:20:13;;;;;;;824.60;757.60;;;;;;;;;;5065439;28;20394;-65
2023/06/29 11:22:41;;;;;;;824.78;758.05;;;;;;;;;;5065895;28;20044;-65
2023/06/29 11:25:08;;;;;;;826.90;761.33;;;;;;;;;;5067272;28;20072;-65
2023/06/29 11:27:34;;;;;;;844.78;769.70;;;;;;;;;;5065583;28;20103;-66
2023/06/29 11:30:04;;;;;;;817.08;752.05;;;;;;;;;;5064172;28;20083;-64
2023/06/29 11:32:31;;;;;;;818.85;753.95;;;;;;;;;;5063571;28;20106;-67
2023/06/29 11:34:59;;;;;;;815.20;750.42;;;;;;;;;;5060879;28;20072;-65
2023/06/29 11:37:26;;;;;;;840.15;772.53;;;;;;;;;;5066457;28;20045;-64
2023/06/29 11:39:53;;;;;;;827.40;760.58;;;;;;;;;;5068240;28;20120;-64
2023/06/29 11:42:21;;;;;;;804.05;737.55;;;;;;;;;;5070311;28;20045;-64
2023/06/29 11:44:49;;;;;;;813.30;748.08;;;;;;;;;;5061673;28;20470;-64
2023/06/29 11:47:16;;;;;;;797.08;733.28;;;;;;;;;;5063893;28;20047;-65
2023/06/29 11:50:04;;;;;;;811.78;747.17;;;;;;;;;;5066315;28;20398;-65
2023/06/29 11:52:32;;;;;;;820.97;755.53;;;;;;;;;;5060736;28;20119;-65
2023/06/29 11:55:03;;;;;;;814.05;748.90;;;;;;;;;;5064662;28;20057;-64
2023/06/29 11:57:33;;;;;;;807.67;743.70;;;;;;;;;;5068000;28;20044;-66
2023/06/29 12:00:00;;;;;;;825.10;758.85;;;;;;;;;;5067155;28;20044;-64
2023/06/29 12:02:27;;;;;;;809.20;744.50;;;;;;;;;;5062321;28;20051;-64
2023/06/29 12:04:55;;;;;;;803.90;740.20;;;;;;;;;;5060016;28;20118;-64
2023/06/29 12:07:38;;;;;;;791.60;728.85;;;;;;;;;;5067849;28;20049;-64
2023/06/29 12:10:06;;;;;;;806.50;742.97;;;;;;;;;;5069422;28;20403;-65
2023/06/29 12:12:33;;;;;;;802.78;739.40;;;;;;;;;;5067029;28;20405;-65
2023/06/29 12:15:10;;;;;;;805.85;742.75;;;;;;;;;;5063261;28;20055;-65
2023/06/29 12:17:37;;;;;;;822.78;757.10;;;;;;;;;;5065672;28;20036;-65
2023/06/29 12:20:13;;;;;;;825.70;760.47;;;;;;;;;;5062845;28;20493;-65
2023/06/29 12:22:41;;;;;;;837.13;770.42;;;;;;;;;;5062589;28;20443;-65
2023/06/29 12:25:12;;;;;;;830.33;764.17;;;;;;;;;;5066741;28;20090;-65
2023/06/29 12:27:42;;;;;;;853.63;783.10;;;;;;;;;;5068692;28;20044;-67
2023/06/29 12:30:10;;;;;;;845.17;778.28;;;;;;;;;;5063835;28;20094;-64
2023/06/29 12:32:37;;;;;;;848.13;780.13;;;;;;;;;;5061724;28;20047;-65
2023/06/29 12:35:04;;;;;;;844.97;778.28;;;;;;;;;;5065687;28;20051;-64
2023/06/29 12:37:30;;;;;;;857.13;788.80;;;;;;;;;;5066949;28;20466;-66
2023/06/29 12:39:57;;;;;;;850.45;782.15;;;;;;;;;;5067386;28;20070;-66
2023/06/29 12:42:24;;;;;;;869.28;800.42;;;;;;;;;;5065270;28;20149;-65
2023/06/29 12:44:50;;;;;;;863.55;795.00;;;;;;;;;;5065440;28;20642;-64
2023/06/29 12:47:20;;;;;;;885.33;814.33;;;;;;;;;;5068825;28;20098;-66
2023/06/29 12:49:47;;;;;;;892.55;820.88;;;;;;;;;;5065705;28;20394;-65
2023/06/29 12:52:15;;;;;;;887.75;817.17;;;;;;;;;;5063126;28;20601;-66
2023/06/29 12:54:42;;;;;;;893.95;819.72;;;;;;;;;;5068141;28;20047;-65
2023/06/29 12:57:09;;;;;;;891.20;819.70;;;;;;;;;;5070068;28;20183;-65
2023/06/29 12:59:38;;;;;;;899.65;827.50;;;;;;;;;;5061278;28;20045;-64
2023/06/29 13:02:05;;;;;;;883.22;812.63;;;;;;;;;;5067063;28;20040;-64
2023/06/29 13:04:34;;;;;;;869.33;800.28;;;;;;;;;;5070728;28;20132;-65
2023/06/29 13:07:07;;;;;;;872.95;802.17;;;;;;;;;;5070101;28;20041;-64
2023/06/29 13:09:37;;;;;;;883.45;812.03;;;;;;;;;;5068141;28;20502;-65
2023/06/29 13:12:04;;;;;;;873.38;803.10;;;;;;;;;;5069319;28;20055;-64
2023/06/29 13:14:31;;;;;;;896.03;823.53;;;;;;;;;;5071555;28;20049;-65
2023/06/29 13:16:58;;;;;;;903.65;831.20;;;;;;;;;;5063424;28;20084;-65
2023/06/29 13:19:27;;;;;;;892.60;819.92;;;;;;;;;;5067490;28;20393;-65
2023/06/29 13:21:54;;;;;;;908.17;833.47;;;;;;;;;;5070719;28;20053;-65
2023/06/29 13:24:22;;;;;;;886.55;815.65;;;;;;;;;;5069393;28;20040;-63
2023/06/29 13:26:49;;;;;;;887.33;816.92;;;;;;;;;;5069528;28;20075;-64
2023/06/29 13:29:17;;;;;;;893.78;821.90;;;;;;;;;;5066926;28;20040;-64
2023/06/29 13:31:43;;;;;;;900.67;827.38;;;;;;;;;;5070529;28;20049;-64
2023/06/29 13:34:10;;;;;;;903.50;831.47;;;;;;;;;;5069487;28;20040;-65
2023/06/29 13:36:37;;;;;;;916.78;843.15;;;;;;;;;;5069777;28;20532;-65
2023/06/29 13:39:03;;;;;;;910.95;839.00;;;;;;;;;;5066637;28;20481;-66
2023/06/29 13:41:40;;;;;;;918.17;845.38;;;;;;;;;;5069586;28;20040;-65
2023/06/29 13:44:08;;;;;;;921.15;847.28;;;;;;;;;;5061955;28;20051;-65
2023/06/29 13:46:35;;;;;;;915.88;843.40;;;;;;;;;;5070719;28;20055;-65
2023/06/29 13:49:02;;;;;;;923.58;849.22;;;;;;;;;;5065399;28;20065;-64
2023/06/29 13:51:30;;;;;;;913.40;840.78;;;;;;;;;;5071259;28;20124;-65
2023/06/29 13:53:57;;;;;;;903.92;831.50;;;;;;;;;;5070474;28;20040;-64
2023/06/29 13:56:23;;;;;;;909.72;837.03;;;;;;;;;;5064600;28;20036;-67
2023/06/29 13:58:51;;;;;;;895.47;823.10;;;;;;;;;;5070070;28;20043;-64